Time;durP1;ratioP1;P1;durP2;ratioP2;P2;SDS_P1;SDS_P2;PMS_P1;PMS_P2;Temp;Humidity;BMP_temperature;BMP_pressure;BME280_temperature;BME280_humidity;BME280_pressure;Samples;Min_cycle;Max_cycle;Signal;HPM_P1;HPM_P2
2021/05/17 00:02:16;;;;;;;2.00;1.90;;;13.60;50.60;;;;;;5118675;28;20962;-86
2021/05/17 00:04:43;;;;;;;4.13;1.90;;;13.40;51.00;;;;;;5118934;28;20461;-86
2021/05/17 00:07:11;;;;;;;4.50;2.20;;;13.50;49.90;;;;;;5118811;28;20567;-86
2021/05/17 00:09:38;;;;;;;2.30;2.10;;;13.50;50.70;;;;;;5118524;28;20958;-86
2021/05/17 00:12:07;;;;;;;8.10;2.47;;;13.70;49.60;;;;;;5118852;28;20470;-86
2021/05/17 00:14:35;;;;;;;2.00;1.90;;;13.60;50.50;;;;;;5118666;28;20470;-86
2021/05/17 00:17:02;;;;;;;2.17;2.07;;;13.50;49.80;;;;;;5118119;28;20922;-86
2021/05/17 00:19:29;;;;;;;2.10;1.90;;;13.70;50.30;;;;;;5118223;28;20534;-86
2021/05/17 00:21:55;;;;;;;1.90;1.80;;;13.80;49.40;;;;;;5118360;27;20454;-86
2021/05/17 00:24:22;;;;;;;2.00;1.90;;;14.00;49.60;;;;;;5118201;28;20455;-86
2021/05/17 00:26:49;;;;;;;7.40;2.00;;;14.20;48.90;;;;;;5118223;28;20751;-86
2021/05/17 00:29:16;;;;;;;2.53;1.90;;;14.70;48.50;;;;;;5118605;28;20445;-86
2021/05/17 00:31:45;;;;;;;2.57;2.00;;;14.70;47.50;;;;;;5118072;28;20514;-86
2021/05/17 00:34:12;;;;;;;2.20;2.00;;;15.00;47.40;;;;;;5118224;28;20461;-86
2021/05/17 00:36:40;;;;;;;6.03;2.00;;;15.00;47.10;;;;;;5118508;28;20448;-87
2021/05/17 00:39:09;;;;;;;2.40;2.20;;;15.00;46.20;;;;;;5118541;28;20838;-87
2021/05/17 00:41:37;;;;;;;2.83;2.50;;;14.80;46.90;;;;;;5118468;28;20502;-87
2021/05/17 00:44:05;;;;;;;1.97;1.90;;;14.90;47.00;;;;;;5118153;28;20505;-87
2021/05/17 00:46:33;;;;;;;2.00;1.90;;;14.90;47.00;;;;;;5124594;28;20518;-86
2021/05/17 00:49:00;;;;;;;9.10;2.20;;;14.40;46.60;;;;;;5120756;28;20911;-86
2021/05/17 00:51:27;;;;;;;1.93;1.90;;;14.00;48.30;;;;;;5118998;28;20568;-86
2021/05/17 00:53:54;;;;;;;2.43;1.80;;;13.90;48.20;;;;;;5118092;28;20441;-86
2021/05/17 00:56:21;;;;;;;1.93;1.83;;;14.20;47.70;;;;;;5118685;28;21009;-86
2021/05/17 00:58:48;;;;;;;2.60;2.20;;;14.30;47.00;;;;;;5122125;28;20442;-86
2021/05/17 01:01:16;;;;;;;2.30;2.10;;;14.60;46.10;;;;;;5130384;28;20447;-86
2021/05/17 01:03:43;;;;;;;2.60;1.83;;;14.40;46.60;;;;;;5118521;28;20532;-86
2021/05/17 01:06:12;;;;;;;2.23;1.83;;;14.30;46.50;;;;;;5118095;28;20532;-86
2021/05/17 01:08:41;;;;;;;5.63;2.20;;;14.00;47.20;;;;;;5118428;28;20465;-86
2021/05/17 01:11:08;;;;;;;2.40;1.93;;;14.20;47.60;;;;;;5117198;28;20469;-86
2021/05/17 01:13:35;;;;;;;1.90;1.90;;;14.30;47.30;;;;;;5117659;28;20923;-85
2021/05/17 01:16:02;;;;;;;2.47;1.90;;;13.80;47.50;;;;;;5117515;28;20504;-85
2021/05/17 01:18:29;;;;;;;1.90;1.83;;;13.60;48.90;;;;;;5117625;27;20437;-85
2021/05/17 01:20:57;;;;;;;4.97;2.20;;;13.70;48.90;;;;;;5117230;28;20520;-85
2021/05/17 01:23:45;;;;;;;2.80;2.00;;;13.60;48.00;;;;;;5117114;28;20449;-85
2021/05/17 01:26:13;;;;;;;1.90;1.80;;;13.50;48.00;;;;;;5116977;28;20512;-85
2021/05/17 01:28:41;;;;;;;3.03;2.20;;;13.80;47.60;;;;;;5117841;28;20450;-85
2021/05/17 01:31:09;;;;;;;7.77;2.00;;;13.90;46.90;;;;;;5116975;28;20933;-85
2021/05/17 01:33:37;;;;;;;2.20;1.80;;;13.90;46.60;;;;;;5116507;28;20464;-85
2021/05/17 01:36:05;;;;;;;2.20;2.10;;;13.60;47.50;;;;;;5116578;28;20481;-85
2021/05/17 01:38:34;;;;;;;2.23;2.00;;;13.40;47.70;;;;;;5116556;28;20457;-85
2021/05/17 01:41:03;;;;;;;2.03;1.83;;;13.60;48.80;;;;;;5126551;28;20449;-85
2021/05/17 01:43:33;;;;;;;3.87;2.10;;;13.20;47.70;;;;;;5123981;28;20985;-84
2021/05/17 01:46:01;;;;;;;2.73;1.83;;;13.30;47.80;;;;;;5116469;28;20513;-85
2021/05/17 01:48:29;;;;;;;2.73;1.90;;;13.40;47.30;;;;;;5127464;28;20450;-85
2021/05/17 01:50:56;;;;;;;2.70;2.00;;;13.70;47.60;;;;;;5118871;28;21008;-85
2021/05/17 01:53:23;;;;;;;2.03;1.87;;;13.50;47.60;;;;;;5117046;28;20480;-86
2021/05/17 01:55:51;;;;;;;1.97;1.80;;;13.40;47.80;;;;;;5116195;28;20473;-85
2021/05/17 01:58:22;;;;;;;2.20;2.00;;;13.70;48.30;;;;;;5116601;28;20530;-85
2021/05/17 02:00:50;;;;;;;2.37;2.10;;;13.70;47.10;;;;;;5116095;28;20930;-85
2021/05/17 02:03:16;;;;;;;1.80;1.80;;;13.40;47.30;;;;;;5115823;28;20499;-85
2021/05/17 02:05:46;;;;;;;3.20;1.80;;;13.30;47.40;;;;;;5116377;28;20472;-86
2021/05/17 02:08:16;;;;;;;1.80;1.70;;;13.10;48.40;;;;;;5116254;28;20796;-85
2021/05/17 02:10:44;;;;;;;2.30;1.93;;;13.50;46.70;;;;;;5115645;28;20994;-85
2021/05/17 02:13:17;;;;;;;2.47;1.90;;;13.60;46.50;;;;;;5116973;28;20444;-85
2021/05/17 02:15:44;;;;;;;2.20;1.80;;;13.50;47.70;;;;;;5116607;28;20497;-85
2021/05/17 02:18:11;;;;;;;1.80;1.70;;;13.50;46.90;;;;;;5116065;28;20442;-85
2021/05/17 02:20:40;;;;;;;2.57;1.80;;;13.30;47.60;;;;;;5118514;28;20441;-85
2021/05/17 02:23:09;;;;;;;2.03;1.80;;;13.60;47.30;;;;;;5126925;28;20453;-86
2021/05/17 02:25:41;;;;;;;1.80;1.70;;;13.60;46.40;;;;;;5116341;28;20552;-86
2021/05/17 02:28:08;;;;;;;1.97;1.80;;;13.80;46.90;;;;;;5115790;28;20436;-86
2021/05/17 02:30:37;;;;;;;2.90;1.80;;;13.70;46.90;;;;;;5115192;28;20484;-85
2021/05/17 02:33:04;;;;;;;2.03;1.90;;;13.40;46.90;;;;;;5115619;28;20528;-85
2021/05/17 02:35:31;;;;;;;1.70;1.70;;;12.90;48.60;;;;;;5115015;28;20477;-85
2021/05/17 02:37:58;;;;;;;1.87;1.87;;;13.00;49.20;;;;;;5115896;28;20462;-86
2021/05/17 02:40:25;;;;;;;3.80;2.43;;;13.00;48.40;;;;;;5115889;28;20553;-85
2021/05/17 02:43:02;;;;;;;1.80;1.70;;;13.30;47.70;;;;;;5115335;28;20480;-86
2021/05/17 02:45:29;;;;;;;1.97;1.90;;;13.60;47.80;;;;;;5115183;28;20980;-86
2021/05/17 02:47:58;;;;;;;1.90;1.80;;;13.60;48.00;;;;;;5115758;28;20434;-86
2021/05/17 02:50:31;;;;;;;4.17;2.00;;;13.80;46.80;;;;;;5115400;28;20522;-85
2021/05/17 02:52:58;;;;;;;2.27;1.90;;;13.70;47.30;;;;;;5115551;28;20433;-86
2021/05/17 02:55:30;;;;;;;2.33;2.10;;;13.40;48.50;;;;;;5115735;28;20488;-86
2021/05/17 02:58:04;;;;;;;2.23;1.80;;;13.20;47.70;;;;;;5115593;28;20478;-86
2021/05/17 03:00:33;;;;;;;2.27;1.80;;;13.20;48.00;;;;;;5115439;28;20421;-85
2021/05/17 03:03:04;;;;;;;4.47;2.10;;;13.30;48.40;;;;;;5124993;28;20465;-86
2021/05/17 03:05:33;;;;;;;10.23;2.50;;;13.50;47.50;;;;;;5120388;28;20490;-86
2021/05/17 03:08:05;;;;;;;3.90;2.03;;;13.80;47.80;;;;;;5115288;28;20446;-86
2021/05/17 03:10:34;;;;;;;2.40;2.20;;;14.10;46.00;;;;;;5114310;28;20527;-85
2021/05/17 03:13:08;;;;;;;4.33;2.07;;;14.10;47.50;;;;;;5114476;28;20450;-86
2021/05/17 03:15:35;;;;;;;2.77;2.10;;;13.80;47.20;;;;;;5114297;28;20470;-86
2021/05/17 03:18:02;;;;;;;2.33;2.00;;;13.60;48.10;;;;;;5114534;28;20466;-86
2021/05/17 03:20:29;;;;;;;2.53;1.80;;;13.80;47.10;;;;;;5114999;28;20533;-86
2021/05/17 03:22:57;;;;;;;3.70;2.00;;;13.70;47.50;;;;;;5114934;28;20849;-86
2021/05/17 03:25:26;;;;;;;4.40;2.20;;;13.80;47.00;;;;;;5114607;28;20450;-86
2021/05/17 03:27:53;;;;;;;3.50;2.20;;;13.80;47.60;;;;;;5114639;28;20445;-86
2021/05/17 03:30:22;;;;;;;4.60;2.43;;;13.60;47.20;;;;;;5128892;28;20562;-85
2021/05/17 03:32:48;;;;;;;3.10;1.90;;;13.40;47.80;;;;;;5113936;28;20485;-86
2021/05/17 03:35:16;;;;;;;3.00;2.20;;;13.40;48.30;;;;;;5113384;28;20989;-86
2021/05/17 03:37:43;;;;;;;4.90;2.10;;;13.60;47.80;;;;;;5115038;28;20469;-86
2021/05/17 03:40:12;;;;;;;2.40;1.90;;;13.70;48.40;;;;;;5114531;28;20442;-86
2021/05/17 03:42:39;;;;;;;5.10;2.33;;;13.30;48.70;;;;;;5114230;28;20449;-86
2021/05/17 03:45:08;;;;;;;6.80;2.10;;;13.50;47.90;;;;;;5123026;28;20446;-86
2021/05/17 03:47:34;;;;;;;4.60;2.20;;;13.60;48.30;;;;;;5115700;28;20453;-86
2021/05/17 03:50:01;;;;;;;2.57;2.00;;;13.90;48.10;;;;;;5115257;28;20625;-85
2021/05/17 03:52:28;;;;;;;3.83;2.30;;;13.40;48.50;;;;;;5114956;28;20441;-85
2021/05/17 03:54:54;;;;;;;2.30;1.90;;;13.20;48.70;;;;;;5114911;28;20480;-85
2021/05/17 03:57:21;;;;;;;3.43;2.10;;;13.30;48.70;;;;;;5115200;28;20477;-84
2021/05/17 03:59:47;;;;;;;4.30;2.50;;;13.30;48.70;;;;;;5115656;28;20528;-84
2021/05/17 04:02:16;;;;;;;2.07;1.93;;;13.50;48.10;;;;;;5115482;28;20521;-85
2021/05/17 04:04:50;;;;;;;5.73;2.50;;;13.40;48.30;;;;;;5115068;28;20983;-85
2021/05/17 04:07:27;;;;;;;3.87;2.10;;;13.30;48.00;;;;;;5114879;28;20884;-85
2021/05/17 04:15:23;;;;;;;5.47;2.40;;;13.20;48.50;;;;;;5127334;28;20428;-85
2021/05/17 04:17:49;;;;;;;6.20;2.40;;;13.70;48.90;;;;;;5137342;28;20429;-84
2021/05/17 04:20:16;;;;;;;3.63;2.13;;;13.50;49.00;;;;;;5137310;28;20448;-84
2021/05/17 04:22:43;;;;;;;2.00;1.90;;;13.30;48.30;;;;;;5136708;28;20437;-85
2021/05/17 04:25:11;;;;;;;2.43;1.80;;;13.40;48.10;;;;;;5137082;28;20462;-84
2021/05/17 04:27:38;;;;;;;4.70;2.00;;;13.20;49.20;;;;;;5137296;27;20437;-84
2021/05/17 04:30:06;;;;;;;7.07;2.00;;;13.40;50.30;;;;;;5127265;27;20476;-84
2021/05/17 04:32:33;;;;;;;4.00;2.20;;;13.50;49.00;;;;;;5119229;28;20422;-84
2021/05/17 04:34:59;;;;;;;7.60;2.23;;;13.60;48.80;;;;;;5119273;28;20559;-85
2021/05/17 04:37:26;;;;;;;4.43;2.20;;;13.30;49.60;;;;;;5117121;28;20511;-84
2021/05/17 04:39:52;;;;;;;2.60;1.83;;;13.50;49.50;;;;;;5114717;28;20984;-84
2021/05/17 04:42:19;;;;;;;2.47;1.90;;;13.20;50.10;;;;;;5115065;28;21008;-85
2021/05/17 04:44:46;;;;;;;2.00;1.80;;;12.90;50.20;;;;;;5115126;28;20503;-84
2021/05/17 04:47:12;;;;;;;7.77;2.13;;;12.40;51.60;;;;;;5117988;28;20956;-84
2021/05/17 04:49:39;;;;;;;2.87;2.00;;;12.50;51.20;;;;;;5118318;27;20450;-84
2021/05/17 04:52:05;;;;;;;5.30;2.20;;;12.60;51.40;;;;;;5118073;28;20485;-85
2021/05/17 04:54:32;;;;;;;12.03;3.60;;;12.80;52.10;;;;;;5118334;28;20508;-85
2021/05/17 04:56:58;;;;;;;6.43;2.30;;;13.00;49.90;;;;;;5117659;28;20529;-84
2021/05/17 04:59:26;;;;;;;3.40;2.23;;;12.90;50.90;;;;;;5117309;28;20956;-85
2021/05/17 05:01:52;;;;;;;4.13;2.07;;;12.50;51.80;;;;;;5116955;28;20915;-84
2021/05/17 05:04:19;;;;;;;2.73;2.10;;;12.80;52.10;;;;;;5117583;28;20464;-84
2021/05/17 05:06:45;;;;;;;6.70;2.10;;;13.10;50.20;;;;;;5116976;28;21052;-85
2021/05/17 05:09:11;;;;;;;5.87;2.00;;;13.20;51.00;;;;;;5117494;28;20573;-84
2021/05/17 05:11:38;;;;;;;1.90;1.80;;;13.10;50.10;;;;;;5117542;28;20480;-84
2021/05/17 05:14:05;;;;;;;2.70;2.10;;;13.10;50.40;;;;;;5119478;28;20465;-86
2021/05/17 05:16:32;;;;;;;4.13;2.50;;;13.50;50.50;;;;;;5121849;28;20449;-86
2021/05/17 05:18:58;;;;;;;2.33;1.70;;;14.00;49.10;;;;;;5120966;28;20446;-86
2021/05/17 05:21:25;;;;;;;3.43;1.90;;;13.80;48.50;;;;;;5136833;28;20429;-86
2021/05/17 05:23:51;;;;;;;3.40;2.20;;;13.70;48.00;;;;;;5138988;28;20430;-85
2021/05/17 05:26:46;;;;;;;4.93;2.10;;;13.70;48.10;;;;;;5139989;27;20433;-85
2021/05/17 05:29:23;;;;;;;2.53;1.90;;;14.10;47.60;;;;;;5138624;27;20505;-85
2021/05/17 05:31:54;;;;;;;2.27;2.07;;;14.50;48.00;;;;;;5139231;28;20465;-86
2021/05/17 05:34:22;;;;;;;6.27;2.10;;;14.80;45.80;;;;;;5139647;27;20466;-85
2021/05/17 05:36:49;;;;;;;3.00;2.10;;;15.60;46.20;;;;;;5138802;28;20430;-85
2021/05/17 05:39:16;;;;;;;1.90;1.80;;;16.50;41.30;;;;;;5138070;27;20453;-85
2021/05/17 05:41:42;;;;;;;4.87;2.80;;;16.90;42.20;;;;;;5131072;28;20805;-86
2021/05/17 05:44:08;;;;;;;2.43;1.70;;;17.70;40.30;;;;;;5125187;28;20470;-84
2021/05/17 05:46:35;;;;;;;2.13;1.77;;;17.80;38.60;;;;;;5119629;28;20437;-85
2021/05/17 05:49:03;;;;;;;2.03;1.73;;;17.40;39.70;;;;;;5118761;28;20495;-85
2021/05/17 05:51:30;;;;;;;2.93;2.10;;;16.30;41.10;;;;;;5119240;28;20608;-85
2021/05/17 05:53:57;;;;;;;4.43;2.17;;;15.60;43.20;;;;;;5120185;28;20494;-83
2021/05/17 05:56:24;;;;;;;2.00;1.93;;;15.20;44.00;;;;;;5122165;28;20453;-85
2021/05/17 05:58:51;;;;;;;5.60;2.00;;;16.10;45.40;;;;;;5119088;28;20445;-85
2021/05/17 06:01:17;;;;;;;2.83;1.77;;;18.00;41.90;;;;;;5118247;28;20441;-85
2021/05/17 06:03:44;;;;;;;3.33;1.80;;;19.60;36.90;;;;;;5117115;28;20461;-85
2021/05/17 06:06:12;;;;;;;3.17;2.03;;;19.70;38.30;;;;;;5116954;28;20507;-85
2021/05/17 06:08:40;;;;;;;2.30;1.63;;;20.30;36.90;;;;;;5118191;28;20450;-87
2021/05/17 06:11:07;;;;;;;3.30;1.97;;;21.40;33.00;;;;;;5117065;28;20472;-86
2021/05/17 06:13:37;;;;;;;2.33;1.70;;;21.30;33.80;;;;;;5116656;28;20441;-86
2021/05/17 06:16:04;;;;;;;2.67;1.70;;;21.80;33.30;;;;;;5117053;28;20525;-86
2021/05/17 06:18:31;;;;;;;2.60;1.60;;;22.90;32.40;;;;;;5117976;28;20449;-87
2021/05/17 06:21:00;;;;;;;3.60;2.00;;;22.40;31.30;;;;;;5119582;28;20441;-86
2021/05/17 06:23:27;;;;;;;3.50;2.17;;;21.70;31.30;;;;;;5121270;28;20449;-86
2021/05/17 06:25:54;;;;;;;1.97;1.83;;;21.50;32.50;;;;;;5122408;28;20472;-87
2021/05/17 06:28:23;;;;;;;4.80;2.43;;;20.80;32.70;;;;;;5122798;28;20445;-86
2021/05/17 06:30:55;;;;;;;6.83;1.90;;;19.80;34.80;;;;;;5119017;28;20485;-87
2021/05/17 06:33:22;;;;;;;2.37;2.00;;;18.80;36.10;;;;;;5119344;28;20438;-85
2021/05/17 06:35:53;;;;;;;2.67;1.90;;;18.90;37.40;;;;;;5123000;28;20496;-84
2021/05/17 06:38:20;;;;;;;2.60;2.03;;;18.30;36.90;;;;;;5120156;28;20879;-84
2021/05/17 06:40:47;;;;;;;3.33;2.00;;;17.60;38.20;;;;;;5118839;28;20483;-83
2021/05/17 06:43:14;;;;;;;8.40;2.20;;;17.10;39.30;;;;;;5122077;28;20480;-84
2021/05/17 06:45:41;;;;;;;2.90;2.10;;;16.80;39.80;;;;;;5117525;28;20476;-85
2021/05/17 06:48:08;;;;;;;6.77;2.50;;;17.00;41.20;;;;;;5116497;28;20461;-84
2021/05/17 06:50:35;;;;;;;9.80;2.87;;;16.40;40.40;;;;;;5115306;28;20477;-86
2021/05/17 06:53:02;;;;;;;3.23;2.30;;;15.90;42.30;;;;;;5114937;28;20426;-86
2021/05/17 06:55:33;;;;;;;3.83;2.90;;;15.70;42.30;;;;;;5115293;28;20784;-85
2021/05/17 06:58:14;;;;;;;3.67;2.27;;;16.30;42.10;;;;;;5114882;28;20433;-85
2021/05/17 07:00:42;;;;;;;4.53;2.27;;;16.20;42.60;;;;;;5115591;28;20784;-85
2021/05/17 07:03:09;;;;;;;3.43;2.30;;;16.70;41.50;;;;;;5116269;28;20957;-85
2021/05/17 07:05:37;;;;;;;3.03;1.90;;;16.50;42.10;;;;;;5116077;28;20505;-85
2021/05/17 07:13:35;;;;;;;2.73;2.03;;;16.50;42.60;;;;;;5116311;28;20412;-85
2021/05/17 07:16:01;;;;;;;6.20;2.20;;;16.80;43.80;;;;;;5115699;28;20534;-84
2021/05/17 07:18:28;;;;;;;4.47;2.20;;;17.00;43.70;;;;;;5115469;28;20488;-84
2021/05/17 07:23:39;;;;;;;5.43;2.57;;;17.20;43.80;;;;;;5115575;28;20406;-85
2021/05/17 07:26:07;;;;;;;4.83;2.30;;;17.20;44.20;;;;;;5115701;28;20469;-85
2021/05/17 07:28:35;;;;;;;5.70;2.20;;;17.10;45.00;;;;;;5116385;28;20513;-86
2021/05/17 07:31:04;;;;;;;4.13;2.70;;;17.20;44.50;;;;;;5120708;28;20482;-85
2021/05/17 07:33:31;;;;;;;2.20;1.93;;;17.00;45.00;;;;;;5120076;28;20454;-86
2021/05/17 07:35:58;;;;;;;2.70;1.93;;;16.70;45.80;;;;;;5115659;28;20508;-85
2021/05/17 07:38:28;;;;;;;6.80;2.47;;;16.80;46.10;;;;;;5082428;28;21168;-85
2021/05/17 07:40:55;;;;;;;2.70;2.50;;;17.10;45.90;;;;;;5116651;28;20438;-85
2021/05/17 07:43:21;;;;;;;5.83;2.30;;;17.30;45.60;;;;;;5115868;28;20445;-85
2021/05/17 07:45:49;;;;;;;6.87;2.60;;;17.20;45.50;;;;;;5115965;28;20552;-86
2021/05/17 07:48:16;;;;;;;3.80;2.10;;;17.60;45.30;;;;;;5115894;28;20483;-85
2021/05/17 07:50:43;;;;;;;2.90;2.00;;;18.00;44.70;;;;;;5115664;28;20842;-85
2021/05/17 07:53:09;;;;;;;3.10;1.90;;;17.60;44.10;;;;;;5115511;28;20445;-85
2021/05/17 07:55:36;;;;;;;1.80;1.70;;;17.40;44.60;;;;;;5114994;28;20997;-85
2021/05/17 07:58:02;;;;;;;2.23;1.80;;;17.20;44.60;;;;;;5115497;28;20999;-85
2021/05/17 08:00:29;;;;;;;4.33;1.73;;;17.00;45.10;;;;;;5115716;28;20915;-85
2021/05/17 08:02:56;;;;;;;3.93;2.10;;;17.60;43.00;;;;;;5115891;28;20477;-85
2021/05/17 08:05:23;;;;;;;4.17;1.90;;;18.30;43.10;;;;;;5116217;28;20492;-86
2021/05/17 08:07:49;;;;;;;2.67;1.97;;;19.20;41.10;;;;;;5114755;28;20465;-85
2021/05/17 08:10:16;;;;;;;5.17;2.20;;;19.90;40.10;;;;;;5114256;28;20507;-85
2021/05/17 08:12:43;;;;;;;7.53;2.33;;;20.70;37.90;;;;;;5114359;28;20445;-85
2021/05/17 08:15:10;;;;;;;3.30;1.70;;;21.10;38.70;;;;;;5114687;28;20504;-85
2021/05/17 08:17:36;;;;;;;3.83;1.70;;;21.90;37.10;;;;;;5122165;28;20449;-85
2021/05/17 08:20:06;;;;;;;5.70;1.80;;;22.70;34.80;;;;;;5114713;28;20472;-85
2021/05/17 08:22:34;;;;;;;5.07;1.67;;;22.50;34.60;;;;;;5117995;28;20852;-85
2021/05/17 08:25:01;;;;;;;4.90;2.00;;;21.60;34.50;;;;;;5118593;28;20484;-86
2021/05/17 08:27:27;;;;;;;2.53;1.50;;;20.60;36.50;;;;;;5118942;28;20856;-85
2021/05/17 08:29:53;;;;;;;2.90;1.60;;;20.40;37.60;;;;;;5118415;28;20486;-86
2021/05/17 08:32:20;;;;;;;4.00;1.77;;;20.20;37.40;;;;;;5117930;28;21032;-85
2021/05/17 08:34:46;;;;;;;3.50;1.97;;;19.40;39.10;;;;;;5118037;28;20560;-86
2021/05/17 08:37:14;;;;;;;2.50;1.93;;;18.60;40.70;;;;;;5118852;28;20456;-85
2021/05/17 08:39:41;;;;;;;7.20;2.10;;;18.30;42.60;;;;;;5118125;28;20558;-85
2021/05/17 08:42:07;;;;;;;5.43;1.90;;;18.40;43.10;;;;;;5118384;28;20444;-85
2021/05/17 08:44:36;;;;;;;3.03;1.80;;;18.70;43.30;;;;;;5117806;28;20468;-86
2021/05/17 08:47:03;;;;;;;5.57;2.03;;;18.70;43.00;;;;;;5118568;28;20492;-85
2021/05/17 08:49:29;;;;;;;2.70;1.97;;;19.00;43.60;;;;;;5118005;28;20449;-85
2021/05/17 08:51:56;;;;;;;6.97;2.00;;;19.40;42.80;;;;;;5119590;28;20497;-85
2021/05/17 08:54:23;;;;;;;3.40;1.80;;;19.60;40.90;;;;;;5119211;28;20472;-86
2021/05/17 08:56:49;;;;;;;4.30;1.90;;;19.80;39.30;;;;;;5118380;28;20440;-86
2021/05/17 08:59:19;;;;;;;3.83;1.80;;;19.80;39.70;;;;;;5135697;28;20421;-86
2021/05/17 09:01:46;;;;;;;5.63;1.77;;;20.10;38.40;;;;;;5124911;28;20521;-85
2021/05/17 09:04:14;;;;;;;2.53;1.80;;;19.70;39.20;;;;;;5118174;28;20497;-85
2021/05/17 09:06:42;;;;;;;1.90;1.80;;;18.00;42.70;;;;;;5117834;28;20518;-85
2021/05/17 09:09:27;;;;;;;2.67;1.93;;;17.10;44.20;;;;;;5117611;28;20429;-86
2021/05/17 09:11:56;;;;;;;2.53;2.03;;;17.10;45.60;;;;;;5124472;28;20456;-85
2021/05/17 09:14:23;;;;;;;6.30;2.10;;;17.70;45.00;;;;;;5131563;27;20470;-85
2021/05/17 09:16:58;;;;;;;3.90;2.10;;;17.90;46.00;;;;;;5124292;28;20441;-86
2021/05/17 09:19:25;;;;;;;16.77;2.00;;;18.40;44.80;;;;;;5119834;28;20414;-85
2021/05/17 09:22:06;;;;;;;4.17;2.13;;;18.70;44.60;;;;;;5119030;28;20441;-85
2021/05/17 09:24:36;;;;;;;3.57;2.07;;;19.30;43.80;;;;;;5118000;28;20497;-86
2021/05/17 09:27:02;;;;;;;2.63;1.77;;;19.60;42.10;;;;;;5117332;28;20805;-86
2021/05/17 09:29:29;;;;;;;3.63;1.73;;;19.20;39.90;;;;;;5117207;28;20449;-86
2021/05/17 09:31:55;;;;;;;3.20;1.80;;;19.00;42.50;;;;;;5117114;28;20474;-85
2021/05/17 09:34:34;;;;;;;4.87;2.07;;;18.70;42.00;;;;;;5117278;28;20576;-85
2021/05/17 09:37:03;;;;;;;3.90;1.80;;;18.00;42.70;;;;;;5116867;28;20502;-85
2021/05/17 09:39:29;;;;;;;3.60;1.97;;;18.40;43.10;;;;;;5128276;28;20440;-85
2021/05/17 09:41:58;;;;;;;3.53;2.23;;;18.20;43.60;;;;;;5138373;27;20440;-85
2021/05/17 09:44:26;;;;;;;2.57;1.73;;;18.40;43.70;;;;;;5119201;28;20461;-86
2021/05/17 09:46:56;;;;;;;3.30;1.83;;;19.30;43.30;;;;;;5117991;28;20465;-85
2021/05/17 09:49:29;;;;;;;4.60;1.93;;;20.20;39.80;;;;;;5116942;28;20438;-85
2021/05/17 09:52:08;;;;;;;2.13;1.83;;;19.60;39.30;;;;;;5120178;28;20542;-86
2021/05/17 09:55:00;;;;;;;5.50;2.40;;;19.40;40.80;;;;;;5120862;28;20586;-86
2021/05/17 09:57:33;;;;;;;3.43;2.00;;;19.50;39.70;;;;;;5116107;28;20449;-86
2021/05/17 10:00:07;;;;;;;5.23;2.53;;;19.60;40.20;;;;;;5116442;28;20426;-86
2021/05/17 10:02:37;;;;;;;3.20;2.00;;;19.10;39.30;;;;;;5117208;28;20425;-85
2021/05/17 10:05:13;;;;;;;6.73;2.30;;;18.10;42.80;;;;;;5118109;28;20974;-85
2021/05/17 10:07:40;;;;;;;5.63;1.87;;;18.10;46.40;;;;;;5116420;28;20445;-85
2021/05/17 10:10:08;;;;;;;17.80;2.07;;;18.30;45.20;;;;;;5116781;28;20452;-86
2021/05/17 10:12:35;;;;;;;5.20;2.10;;;18.90;43.50;;;;;;5116617;28;20484;-86
2021/05/17 10:15:02;;;;;;;4.43;2.17;;;19.40;41.60;;;;;;5118299;28;20457;-86
2021/05/17 10:17:28;;;;;;;3.10;1.90;;;19.30;40.30;;;;;;5120641;28;20471;-85
2021/05/17 10:19:55;;;;;;;2.03;1.80;;;18.50;41.00;;;;;;5120536;28;20449;-85
2021/05/17 10:22:21;;;;;;;7.73;1.90;;;18.40;43.20;;;;;;5134396;28;20425;-85
2021/05/17 10:24:48;;;;;;;4.63;1.80;;;18.50;43.10;;;;;;5128035;28;20470;-85
2021/05/17 10:27:14;;;;;;;15.93;2.23;;;18.30;41.80;;;;;;5116358;28;20847;-85
2021/05/17 10:29:41;;;;;;;3.07;2.37;;;18.00;42.70;;;;;;5116258;28;20446;-85
2021/05/17 10:32:09;;;;;;;2.83;2.30;;;18.10;44.00;;;;;;5115745;28;20513;-85
2021/05/17 10:34:48;;;;;;;2.53;1.90;;;17.90;46.00;;;;;;5115705;28;20499;-85
2021/05/17 10:37:21;;;;;;;7.50;2.33;;;17.90;46.00;;;;;;5115487;28;20822;-85
2021/05/17 10:39:54;;;;;;;2.53;1.93;;;18.50;44.00;;;;;;5115279;28;20851;-86
2021/05/17 10:42:25;;;;;;;2.50;1.40;;;18.60;42.90;;;;;;5117597;28;20437;-85
2021/05/17 10:47:47;;;;;;;3.10;1.83;;;18.30;41.80;;;;;;5118049;28;20413;-86
2021/05/17 10:50:15;;;;;;;2.50;1.90;;;18.20;42.90;;;;;;5117624;28;20483;-85
2021/05/17 10:52:42;;;;;;;1.90;1.70;;;18.30;41.60;;;;;;5118954;28;20564;-85
2021/05/17 10:55:11;;;;;;;2.93;1.90;;;18.20;41.80;;;;;;5118306;28;21025;-85
2021/05/17 10:57:59;;;;;;;3.03;1.90;;;18.10;40.50;;;;;;5115916;28;20442;-85
2021/05/17 11:00:26;;;;;;;4.03;2.40;;;18.40;39.00;;;;;;5114833;28;20520;-85
2021/05/17 11:03:11;;;;;;;8.20;1.90;;;18.40;38.20;;;;;;5119991;28;21010;-85
2021/05/17 11:05:38;;;;;;;2.17;1.60;;;18.50;38.20;;;;;;5135718;27;20492;-85
2021/05/17 11:08:07;;;;;;;5.43;1.90;;;18.80;38.40;;;;;;5115307;28;20441;-86
2021/05/17 11:10:36;;;;;;;2.77;2.07;;;18.10;38.30;;;;;;5115175;28;20406;-85
2021/05/17 11:13:14;;;;;;;4.10;1.80;;;18.40;38.70;;;;;;5115082;28;20487;-85
2021/05/17 11:15:47;;;;;;;3.10;1.80;;;19.00;37.80;;;;;;5122263;28;20837;-85
2021/05/17 11:18:33;;;;;;;5.50;2.10;;;18.80;37.60;;;;;;5119471;28;20947;-86
2021/05/17 11:21:03;;;;;;;3.83;1.53;;;19.60;37.50;;;;;;5114683;28;20438;-85
2021/05/17 11:23:54;;;;;;;15.03;5.43;;;19.90;37.10;;;;;;5114667;28;21003;-86
2021/05/17 11:26:23;;;;;;;2.33;1.90;;;19.90;36.20;;;;;;5112415;28;20453;-87
2021/05/17 11:29:05;;;;;;;4.63;1.90;;;20.00;35.50;;;;;;5114829;28;20442;-86
2021/05/17 11:31:46;;;;;;;2.17;1.60;;;19.50;35.80;;;;;;5114605;28;21045;-86
2021/05/17 11:34:20;;;;;;;1.60;1.50;;;19.60;36.70;;;;;;5114435;28;20473;-86
2021/05/17 11:36:50;;;;;;;7.80;1.50;;;19.80;34.70;;;;;;5114792;28;20441;-86
2021/05/17 11:39:22;;;;;;;2.07;1.50;;;19.60;33.00;;;;;;5114329;28;20961;-86
2021/05/17 11:41:51;;;;;;;3.60;1.50;;;19.40;34.90;;;;;;5114884;28;20441;-86
2021/05/17 11:44:21;;;;;;;1.97;1.67;;;19.10;34.20;;;;;;5114794;28;20493;-86
2021/05/17 11:46:51;;;;;;;1.50;1.40;;;18.90;36.20;;;;;;5116101;28;20438;-86
2021/05/17 11:49:18;;;;;;;2.17;1.60;;;19.30;37.30;;;;;;5126625;28;20775;-86
2021/05/17 11:51:50;;;;;;;1.60;1.60;;;18.90;36.30;;;;;;5114289;28;20470;-85
2021/05/17 11:54:16;;;;;;;1.60;1.40;;;18.80;37.10;;;;;;5115268;28;20504;-86
2021/05/17 11:56:44;;;;;;;3.20;1.47;;;19.10;36.50;;;;;;5117697;28;21022;-86
2021/05/17 11:59:13;;;;;;;1.60;1.50;;;19.20;36.50;;;;;;5119730;28;20923;-85
2021/05/17 12:01:41;;;;;;;4.43;2.83;;;19.30;34.70;;;;;;5118473;28;20434;-85
2021/05/17 12:04:19;;;;;;;2.07;1.93;;;19.50;34.20;;;;;;5118937;28;20473;-85
2021/05/17 12:06:49;;;;;;;2.60;1.90;;;19.00;34.80;;;;;;5118061;28;20489;-84
2021/05/17 12:09:34;;;;;;;3.93;2.20;;;18.20;36.70;;;;;;5119445;28;20553;-85
2021/05/17 12:12:03;;;;;;;6.90;2.20;;;18.30;35.80;;;;;;5123199;28;20469;-84
2021/05/17 12:14:30;;;;;;;2.73;1.90;;;18.10;37.40;;;;;;5121081;28;20486;-85
2021/05/17 12:17:12;;;;;;;2.23;2.00;;;18.30;37.20;;;;;;5118678;28;20448;-86
2021/05/17 12:19:41;;;;;;;1.70;1.60;;;18.80;37.00;;;;;;5119152;28;20491;-86
2021/05/17 12:22:10;;;;;;;2.00;1.70;;;18.80;35.60;;;;;;5118115;28;20532;-86
2021/05/17 12:24:36;;;;;;;1.73;1.70;;;19.00;35.50;;;;;;5118701;28;20469;-86
2021/05/17 12:27:05;;;;;;;1.83;1.80;;;19.20;36.30;;;;;;5117782;28;20528;-86
2021/05/17 12:29:53;;;;;;;2.27;1.60;;;19.40;34.10;;;;;;5117844;28;20452;-85
2021/05/17 12:32:22;;;;;;;5.97;2.40;;;19.20;34.20;;;;;;5117964;28;20469;-85
2021/05/17 12:34:54;;;;;;;2.90;1.73;;;19.40;35.00;;;;;;5133658;28;20841;-85
2021/05/17 12:37:26;;;;;;;5.87;1.77;;;19.80;34.40;;;;;;5123500;28;20441;-85
2021/05/17 12:40:25;;;;;;;2.40;1.70;;;19.90;34.80;;;;;;5119871;28;20417;-86
2021/05/17 12:43:16;;;;;;;2.23;1.60;;;19.90;34.60;;;;;;5075259;28;20545;-85
2021/05/17 12:45:45;;;;;;;1.70;1.60;;;20.10;33.90;;;;;;5115099;28;20481;-86
2021/05/17 12:48:20;;;;;;;4.10;2.50;;;20.50;34.20;;;;;;5117601;28;20445;-86
2021/05/17 12:50:49;;;;;;;2.73;2.00;;;19.80;33.80;;;;;;5117663;28;20482;-86
2021/05/17 12:53:19;;;;;;;2.07;1.73;;;19.90;35.20;;;;;;5117776;28;20437;-86
2021/05/17 12:55:46;;;;;;;2.33;1.73;;;19.50;35.60;;;;;;5117596;28;20469;-85
2021/05/17 12:58:15;;;;;;;4.43;1.90;;;19.30;35.10;;;;;;5127917;28;20461;-85
2021/05/17 13:00:45;;;;;;;1.60;1.50;;;19.10;36.40;;;;;;5138142;28;20442;-85
2021/05/17 13:03:14;;;;;;;1.77;1.67;;;19.40;35.40;;;;;;5139154;28;20418;-86
2021/05/17 13:05:59;;;;;;;5.20;2.77;;;19.70;34.60;;;;;;5139132;27;20466;-85
2021/05/17 13:08:44;;;;;;;4.33;2.20;;;19.90;35.00;;;;;;5139028;28;20429;-85
2021/05/17 13:11:13;;;;;;;2.23;2.03;;;20.10;34.90;;;;;;5139727;27;20507;-86
2021/05/17 13:13:45;;;;;;;1.90;1.40;;;20.30;34.30;;;;;;5122234;28;20445;-85